Cmt Otter — WDI8641 — position and weather

sailwx.info

Track history (hours):
 
Tides and Currents Weather Stations Pressure Air Temp Water Temp Dewpoint Dewpoint Depression Visibility Wind Speed Wind Dir Waves Ship Positions

Cmt Otter

Owner: Coeymans Marine Towing, Coeymans, NY. More information available from US FCC via Universal Licensing System and Coast Guard Vessel Documentation Center.

Last reported at 2018-Jun-23 12:00 UTC. Time now 2018-Jun-23 12:18 UTC.
Position N 40°44' W 073°58'.

Length 20 m; draft 3 m.

Type: Towing. MMSI: 367740640.

Date/timePositionNaut miles runAvg speedWind from/ knotsBaromVisibWave heightAir tempDewpointWater temp
2018-Jun-23 12:00N 40°44' W 073°58'2 4.1
2018-Jun-23 11:30N 40°42' W 073°59'3 5.5
2018-Jun-23 11:00N 40°40' W 074°02'1 1.9
2018-Jun-23 10:30N 40°40' W 074°03'0 0.1
2018-Jun-23 10:00N 40°40' W 074°03'0 0.0
2018-Jun-23 09:30N 40°40' W 074°03'0 0.0
2018-Jun-23 09:00N 40°40' W 074°03'0 0.0
2018-Jun-23 08:31N 40°40' W 074°03'0 0.1
2018-Jun-23 08:01N 40°40' W 074°03'0 0.1
2018-Jun-23 07:31N 40°40' W 074°03'0 0.8
2018-Jun-23 07:00N 40°40' W 074°03'2 4.5
2018-Jun-23 06:31N 40°42' W 074°02'3 6.0
2018-Jun-23 06:01N 40°45' W 074°01'  
2018-Jun-20 20:07N 40°47' W 073°60'1 7.0
2018-Jun-20 20:00N 40°46' W 074°00'3 6.7
2018-Jun-20 19:30N 40°43' W 074°01'3 6.1
2018-Jun-20 19:00N 40°40' W 074°03'1 2.6
2018-Jun-20 18:30N 40°39' W 074°05'2 2.5
2018-Jun-20 17:52N 40°39' W 074°07'0 0.0
2018-Jun-20 16:52N 40°39' W 074°07'1 2.8
2018-Jun-20 16:30N 40°39' W 074°05'3 6.8
2018-Jun-20 16:00N 40°40' W 074°01'0 0.3
2018-Jun-20 15:30N 40°40' W 074°01'1 1.2
2018-Jun-20 15:00N 40°40' W 074°00'1 2.5
2018-Jun-20 14:30N 40°41' W 074°02'3 5.8
2018-Jun-20 14:00N 40°44' W 074°01'4 7.7
2018-Jun-20 13:30N 40°47' W 073°60'  
2018-Jun-16 03:02N 40°48' W 073°59'0 7.8
2018-Jun-16 02:59N 40°48' W 073°59'4 7.5
2018-Jun-16 02:30N 40°44' W 074°01'3 6.9
2018-Jun-16 02:00N 40°41' W 074°02'1 2.0
2018-Jun-16 01:30N 40°40' W 074°02'1 1.8
2018-Jun-16 01:00N 40°40' W 074°03'0 0.3
2018-Jun-16 00:30N 40°40' W 074°03'2 3.1
2018-Jun-16 00:00N 40°41' W 074°01'1 1.9
2018-Jun-15 23:31N 40°42' W 074°00'1 1.4
2018-Jun-15 23:00N 40°42' W 073°60'1 1.7
2018-Jun-15 22:30N 40°43' W 073°59'2 3.4
2018-Jun-15 22:00N 40°44' W 073°58'1 1.2
2018-Jun-15 21:28N 40°44' W 073°57'0 0.0
2018-Jun-15 20:58N 40°44' W 073°57'0 0.0
2018-Jun-15 20:29N 40°44' W 073°57'1 2.3
2018-Jun-15 19:59N 40°44' W 073°58'2 0.2
2018-Jun-15 10:02N 40°46' W 073°57'0 5.9
2018-Jun-15 10:00N 40°46' W 073°57'3 5.2
2018-Jun-15 09:30N 40°43' W 073°58'2 4.4
2018-Jun-15 09:00N 40°42' W 074°00'2 4.1
2018-Jun-15 08:30N 40°40' W 074°02'1 1.5
2018-Jun-15 08:00N 40°40' W 074°03'0 0.1
2018-Jun-15 07:30N 40°40' W 074°03'0 0.2
2018-Jun-15 07:00N 40°40' W 074°03'1 2.1
2018-Jun-15 06:30N 40°41' W 074°02'4 8.2
2018-Jun-15 06:00N 40°43' W 073°58'1 2.4
2018-Jun-15 05:23N 40°44' W 073°57'0 0.3
2018-Jun-15 04:58N 40°44' W 073°57'0 0.0
2018-Jun-15 04:30N 40°44' W 073°57'1 2.1
2018-Jun-15 04:00N 40°44' W 073°58'2 3.2
2018-Jun-15 03:30N 40°42' W 073°59'2 4.2
2018-Jun-15 03:00N 40°41' W 074°01'1 2.9
2018-Jun-15 02:30N 40°40' W 074°02'1 1.5
2018-Jun-15 02:00N 40°40' W 074°01'0 0.6
2018-Jun-15 01:30N 40°40' W 074°01'0 0.0
2018-Jun-15 01:00N 40°40' W 074°01'0 0.0
2018-Jun-15 00:30N 40°40' W 074°01'0 0.0
2018-Jun-15 00:00N 40°40' W 074°01'0 0.4
2018-Jun-14 23:30N 40°40' W 074°01'1 2.2
2018-Jun-14 23:00N 40°40' W 074°02'0 0.5
2018-Jun-14 22:30N 40°40' W 074°02'3 5.9
2018-Jun-14 21:59N 40°39' W 074°06'2 3.8
2018-Jun-14 21:30N 40°38' W 074°09'0 0.2
2018-Jun-14 21:00N 40°38' W 074°09'3 5.4
2018-Jun-14 20:30N 40°39' W 074°05'2 3.5
2018-Jun-14 20:00N 40°40' W 074°03'1 2.2
2018-Jun-14 19:30N 40°40' W 074°02'1 1.4
2018-Jun-14 19:00N 40°40' W 074°01'0 0.9
2018-Jun-14 18:30N 40°40' W 074°01'1 1.8
2018-Jun-14 18:00N 40°40' W 074°02'1 1.5
2018-Jun-14 17:30N 40°40' W 074°03'1 1.3
2018-Jun-14 17:00N 40°40' W 074°03'2 4.8
2018-Jun-14 16:30N 40°43' W 074°02'2 4.2
2018-Jun-14 16:00N 40°45' W 074°01'  
Track history (hours):
 
Tides and Currents Weather Stations Pressure Air Temp Water Temp Dewpoint Dewpoint Depression Visibility Wind Speed Wind Dir Waves Ship Positions

Cmt Otter

Owner: Coeymans Marine Towing, Coeymans, NY. More information available from US FCC via Universal Licensing System and Coast Guard Vessel Documentation Center.

Last reported at 2018-Jun-23 12:00 UTC. Time now 2018-Jun-23 12:18 UTC.
Position N 40°44' W 073°58'.

Length 20 m; draft 3 m.

Type: Towing. MMSI: 367740640.

Date/timePositionNaut miles runAvg speedWind from/ knotsBaromVisibWave heightAir tempDewpointWater temp
2018-Jun-23 12:00N 40°44' W 073°58'2 4.1
2018-Jun-23 11:30N 40°42' W 073°59'3 5.5
2018-Jun-23 11:00N 40°40' W 074°02'1 1.9
2018-Jun-23 10:30N 40°40' W 074°03'0 0.1
2018-Jun-23 10:00N 40°40' W 074°03'0 0.0
2018-Jun-23 09:30N 40°40' W 074°03'0 0.0
2018-Jun-23 09:00N 40°40' W 074°03'0 0.0
2018-Jun-23 08:31N 40°40' W 074°03'0 0.1
2018-Jun-23 08:01N 40°40' W 074°03'0 0.1
2018-Jun-23 07:31N 40°40' W 074°03'0 0.8
2018-Jun-23 07:00N 40°40' W 074°03'2 4.5
2018-Jun-23 06:31N 40°42' W 074°02'3 6.0
2018-Jun-23 06:01N 40°45' W 074°01'  
2018-Jun-20 20:07N 40°47' W 073°60'1 7.0
2018-Jun-20 20:00N 40°46' W 074°00'3 6.7
2018-Jun-20 19:30N 40°43' W 074°01'3 6.1
2018-Jun-20 19:00N 40°40' W 074°03'1 2.6
2018-Jun-20 18:30N 40°39' W 074°05'2 2.5
2018-Jun-20 17:52N 40°39' W 074°07'0 0.0
2018-Jun-20 16:52N 40°39' W 074°07'1 2.8
2018-Jun-20 16:30N 40°39' W 074°05'3 6.8
2018-Jun-20 16:00N 40°40' W 074°01'0 0.3
2018-Jun-20 15:30N 40°40' W 074°01'1 1.2
2018-Jun-20 15:00N 40°40' W 074°00'1 2.5
2018-Jun-20 14:30N 40°41' W 074°02'3 5.8
2018-Jun-20 14:00N 40°44' W 074°01'4 7.7
2018-Jun-20 13:30N 40°47' W 073°60'  
2018-Jun-16 03:02N 40°48' W 073°59'0 7.8
2018-Jun-16 02:59N 40°48' W 073°59'4 7.5
2018-Jun-16 02:30N 40°44' W 074°01'3 6.9
2018-Jun-16 02:00N 40°41' W 074°02'1 2.0
2018-Jun-16 01:30N 40°40' W 074°02'1 1.8
2018-Jun-16 01:00N 40°40' W 074°03'0 0.3
2018-Jun-16 00:30N 40°40' W 074°03'2 3.1
2018-Jun-16 00:00N 40°41' W 074°01'1 1.9
2018-Jun-15 23:31N 40°42' W 074°00'1 1.4
2018-Jun-15 23:00N 40°42' W 073°60'1 1.7
2018-Jun-15 22:30N 40°43' W 073°59'2 3.4
2018-Jun-15 22:00N 40°44' W 073°58'1 1.2
2018-Jun-15 21:28N 40°44' W 073°57'0 0.0
2018-Jun-15 20:58N 40°44' W 073°57'0 0.0
2018-Jun-15 20:29N 40°44' W 073°57'1 2.3
2018-Jun-15 19:59N 40°44' W 073°58'2 0.2
2018-Jun-15 10:02N 40°46' W 073°57'0 5.9
2018-Jun-15 10:00N 40°46' W 073°57'3 5.2
2018-Jun-15 09:30N 40°43' W 073°58'2 4.4
2018-Jun-15 09:00N 40°42' W 074°00'2 4.1
2018-Jun-15 08:30N 40°40' W 074°02'1 1.5
2018-Jun-15 08:00N 40°40' W 074°03'0 0.1
2018-Jun-15 07:30N 40°40' W 074°03'0 0.2
2018-Jun-15 07:00N 40°40' W 074°03'1 2.1
2018-Jun-15 06:30N 40°41' W 074°02'4 8.2
2018-Jun-15 06:00N 40°43' W 073°58'1 2.4
2018-Jun-15 05:23N 40°44' W 073°57'0 0.3
2018-Jun-15 04:58N 40°44' W 073°57'0 0.0
2018-Jun-15 04:30N 40°44' W 073°57'1 2.1
2018-Jun-15 04:00N 40°44' W 073°58'2 3.2
2018-Jun-15 03:30N 40°42' W 073°59'2 4.2
2018-Jun-15 03:00N 40°41' W 074°01'1 2.9
2018-Jun-15 02:30N 40°40' W 074°02'1 1.5
2018-Jun-15 02:00N 40°40' W 074°01'0 0.6
2018-Jun-15 01:30N 40°40' W 074°01'0 0.0
2018-Jun-15 01:00N 40°40' W 074°01'0 0.0
2018-Jun-15 00:30N 40°40' W 074°01'0 0.0
2018-Jun-15 00:00N 40°40' W 074°01'0 0.4
2018-Jun-14 23:30N 40°40' W 074°01'1 2.2
2018-Jun-14 23:00N 40°40' W 074°02'0 0.5
2018-Jun-14 22:30N 40°40' W 074°02'3 5.9
2018-Jun-14 21:59N 40°39' W 074°06'2 3.8
2018-Jun-14 21:30N 40°38' W 074°09'0 0.2
2018-Jun-14 21:00N 40°38' W 074°09'3 5.4
2018-Jun-14 20:30N 40°39' W 074°05'2 3.5
2018-Jun-14 20:00N 40°40' W 074°03'1 2.2
2018-Jun-14 19:30N 40°40' W 074°02'1 1.4
2018-Jun-14 19:00N 40°40' W 074°01'0 0.9
2018-Jun-14 18:30N 40°40' W 074°01'1 1.8
2018-Jun-14 18:00N 40°40' W 074°02'1 1.5
2018-Jun-14 17:30N 40°40' W 074°03'1 1.3
2018-Jun-14 17:00N 40°40' W 074°03'2 4.8
2018-Jun-14 16:30N 40°43' W 074°02'2 4.2
2018-Jun-14 16:00N 40°45' W 074°01'  

Dump ship's entire track history